Time;durP1;ratioP1;P1;durP2;ratioP2;P2;SDS_P1;SDS_P2;PMS_P1;PMS_P2;Temp;Humidity;BMP_temperature;BMP_pressure;BME280_temperature;BME280_humidity;BME280_pressure;Samples;Min_cycle;Max_cycle;Signal;HPM_P1;HPM_P2
2023/01/30 00:01:33;;;;;;;61.27;34.90;;;4.30;99.90;;;;;;5033342;28;20483;-62
2023/01/30 00:04:02;;;;;;;62.50;35.83;;;4.30;99.90;;;;;;5034317;28;20472;-62
2023/01/30 00:06:30;;;;;;;63.30;36.23;;;4.30;99.90;;;;;;5046457;28;20479;-62
2023/01/30 00:08:58;;;;;;;56.13;33.93;;;4.30;99.90;;;;;;5042219;28;20463;-62
2023/01/30 00:11:28;;;;;;;54.37;34.27;;;4.30;99.90;;;;;;5033809;28;20545;-62
2023/01/30 00:13:56;;;;;;;59.90;33.00;;;4.30;99.90;;;;;;5034226;28;20454;-62
2023/01/30 00:16:24;;;;;;;55.73;33.93;;;4.30;99.90;;;;;;5034372;28;20499;-62
2023/01/30 00:18:53;;;;;;;55.50;34.87;;;4.40;99.90;;;;;;5034289;28;20468;-62
2023/01/30 00:21:22;;;;;;;51.77;34.30;;;4.40;99.90;;;;;;5033627;28;20478;-62
2023/01/30 00:23:50;;;;;;;59.57;34.60;;;4.40;99.90;;;;;;5034012;28;20941;-62
2023/01/30 00:26:18;;;;;;;55.00;33.70;;;4.40;99.90;;;;;;5034282;28;20552;-62
2023/01/30 00:28:46;;;;;;;61.03;36.27;;;4.40;99.90;;;;;;5034295;28;20470;-62
2023/01/30 00:31:14;;;;;;;59.10;34.73;;;4.40;99.90;;;;;;5033051;28;20508;-63
2023/01/30 00:33:42;;;;;;;57.07;34.37;;;4.40;99.90;;;;;;5032337;28;20470;-62
2023/01/30 00:36:11;;;;;;;58.10;34.20;;;4.40;99.90;;;;;;5045515;28;20521;-62
2023/01/30 00:38:40;;;;;;;56.37;34.00;;;4.40;99.90;;;;;;5041939;28;20950;-63
2023/01/30 00:41:09;;;;;;;57.33;34.87;;;4.50;99.90;;;;;;5033633;28;20970;-62
2023/01/30 00:49:13;;;;;;;55.63;32.20;;;4.60;99.90;;;;;;5032551;28;20474;-62
2023/01/30 00:51:41;;;;;;;52.23;31.53;;;4.60;99.90;;;;;;5033900;28;20498;-62
2023/01/30 00:54:11;;;;;;;53.93;32.73;;;4.60;99.90;;;;;;5033734;28;20556;-62
2023/01/30 00:56:39;;;;;;;51.87;31.27;;;4.60;99.90;;;;;;5032378;28;20474;-63
2023/01/30 00:59:07;;;;;;;51.07;31.77;;;4.60;99.90;;;;;;5032415;28;20815;-62
2023/01/30 01:01:36;;;;;;;47.27;29.13;;;4.60;99.90;;;;;;5032974;28;20989;-62
2023/01/30 01:04:05;;;;;;;51.67;31.20;;;4.60;99.90;;;;;;5033490;28;20482;-62
2023/01/30 01:06:33;;;;;;;50.80;30.73;;;4.70;99.90;;;;;;5045318;28;20477;-63
2023/01/30 01:09:01;;;;;;;51.83;31.30;;;4.70;99.90;;;;;;5036147;28;20485;-62
2023/01/30 01:11:31;;;;;;;48.97;32.03;;;4.70;99.90;;;;;;5039631;28;20533;-62
2023/01/30 01:14:02;;;;;;;48.27;29.90;;;4.70;99.90;;;;;;5040265;28;20459;-62
2023/01/30 01:16:31;;;;;;;51.67;29.20;;;4.80;99.90;;;;;;5038628;28;20831;-62
2023/01/30 01:19:00;;;;;;;48.13;29.93;;;4.80;99.90;;;;;;5025593;28;20463;-62
2023/01/30 01:21:28;;;;;;;50.13;31.83;;;4.90;99.90;;;;;;5020228;28;20826;-62
2023/01/30 01:23:58;;;;;;;50.27;29.10;;;4.90;99.90;;;;;;5020429;28;20467;-62
2023/01/30 01:26:27;;;;;;;49.77;30.70;;;4.80;99.90;;;;;;5020515;28;20463;-62
2023/01/30 01:28:57;;;;;;;48.70;31.27;;;4.90;99.90;;;;;;5020243;28;20460;-62
2023/01/30 01:31:25;;;;;;;48.70;31.40;;;4.90;99.90;;;;;;5026916;28;20915;-62
2023/01/30 01:33:55;;;;;;;49.27;30.30;;;4.90;99.90;;;;;;5038585;28;20546;-62
2023/01/30 01:36:25;;;;;;;49.10;29.80;;;4.90;99.90;;;;;;5052345;28;20509;-62
2023/01/30 01:39:13;;;;;;;49.23;31.47;;;4.90;99.90;;;;;;5032309;28;20961;-62
2023/01/30 01:41:41;;;;;;;52.47;31.07;;;4.90;99.90;;;;;;5039717;28;20861;-62
2023/01/30 01:44:11;;;;;;;48.70;31.10;;;5.00;99.90;;;;;;5038576;28;20466;-62
2023/01/30 01:46:44;;;;;;;51.53;31.60;;;5.00;99.90;;;;;;5039633;28;20463;-62
2023/01/30 01:49:17;;;;;;;49.00;30.43;;;5.00;99.90;;;;;;5022879;28;20471;-62
2023/01/30 01:51:52;;;;;;;51.17;30.27;;;5.10;99.90;;;;;;5020227;28;20573;-62
2023/01/30 01:54:29;;;;;;;45.93;30.47;;;5.10;99.90;;;;;;5018632;28;20985;-62
2023/01/30 01:57:01;;;;;;;49.73;30.27;;;5.00;99.90;;;;;;5020250;28;20570;-62
2023/01/30 01:59:34;;;;;;;47.20;30.97;;;5.10;99.90;;;;;;5035313;28;20266;-62
2023/01/30 02:02:08;;;;;;;48.20;30.60;;;5.10;99.90;;;;;;5036073;28;20492;-62
2023/01/30 02:07:25;;;;;;;46.13;28.27;;;5.10;99.90;;;;;;5041044;28;20466;-62
2023/01/30 02:09:53;;;;;;;43.53;29.07;;;5.20;99.90;;;;;;5038433;28;20469;-62
2023/01/30 02:12:21;;;;;;;42.30;28.27;;;5.20;99.90;;;;;;5038487;28;20497;-62
2023/01/30 02:14:52;;;;;;;42.70;29.33;;;5.20;99.90;;;;;;5038330;28;20500;-62
2023/01/30 02:17:21;;;;;;;40.50;27.87;;;5.20;99.90;;;;;;5039614;28;20807;-62
2023/01/30 02:19:54;;;;;;;38.30;26.93;;;5.20;99.90;;;;;;5018388;28;20915;-62
2023/01/30 02:22:50;;;;;;;43.67;28.03;;;5.20;99.90;;;;;;5016660;28;20459;-62
2023/01/30 02:25:44;;;;;;;39.03;24.83;;;5.30;99.90;;;;;;5035331;28;20456;-62
2023/01/30 02:28:37;;;;;;;38.23;25.47;;;5.30;99.90;;;;;;5036283;28;20838;-62
2023/01/30 02:31:26;;;;;;;37.13;25.03;;;5.30;99.90;;;;;;5036020;28;20485;-62
2023/01/30 02:34:09;;;;;;;32.60;22.67;;;5.30;99.90;;;;;;5036597;28;20966;-62
2023/01/30 02:36:49;;;;;;;33.30;23.40;;;5.30;99.90;;;;;;5042741;28;20865;-62
2023/01/30 02:39:28;;;;;;;35.10;24.40;;;5.30;99.90;;;;;;5027648;28;20558;-62
2023/01/30 02:42:05;;;;;;;29.87;21.83;;;5.40;99.90;;;;;;5036223;28;20466;-62
2023/01/30 02:44:43;;;;;;;31.20;21.73;;;5.40;99.90;;;;;;5034833;28;20506;-62
2023/01/30 02:47:15;;;;;;;30.70;21.93;;;5.40;99.90;;;;;;5021430;28;20479;-62
2023/01/30 02:49:48;;;;;;;31.40;21.90;;;5.40;99.90;;;;;;5016092;28;20463;-62
2023/01/30 02:52:16;;;;;;;31.97;22.63;;;5.40;99.90;;;;;;5015023;28;20491;-62
2023/01/30 02:54:46;;;;;;;30.57;20.73;;;5.40;99.90;;;;;;5015148;28;20463;-62
2023/01/30 02:57:20;;;;;;;27.83;19.63;;;5.50;99.90;;;;;;5014797;28;20990;-62
2023/01/30 02:59:56;;;;;;;31.90;22.57;;;5.50;99.90;;;;;;5015068;28;20707;-62
2023/01/30 03:02:49;;;;;;;29.63;21.13;;;5.50;99.90;;;;;;5023840;28;20229;-62
2023/01/30 03:05:33;;;;;;;28.77;20.33;;;5.50;99.90;;;;;;5040444;28;20220;-62
2023/01/30 03:08:13;;;;;;;27.33;19.80;;;5.50;99.90;;;;;;5030962;28;20255;-62
2023/01/30 03:10:50;;;;;;;28.23;19.23;;;5.50;99.90;;;;;;5033794;28;20231;-62
2023/01/30 03:13:25;;;;;;;26.47;18.33;;;5.60;99.90;;;;;;5034146;28;20290;-62
2023/01/30 03:15:59;;;;;;;26.23;18.87;;;5.60;99.90;;;;;;5034013;28;20524;-62
2023/01/30 03:18:29;;;;;;;27.80;18.57;;;5.60;99.90;;;;;;5014037;28;20530;-62
2023/01/30 03:21:04;;;;;;;26.13;18.73;;;5.60;99.90;;;;;;4997962;28;20222;-62
2023/01/30 03:23:32;;;;;;;23.43;17.17;;;5.60;99.90;;;;;;5015002;28;20458;-62
2023/01/30 03:26:04;;;;;;;23.70;16.27;;;5.60;99.90;;;;;;5015225;28;20539;-62
2023/01/30 03:28:34;;;;;;;22.30;15.90;;;5.60;99.90;;;;;;5016804;28;20518;-62
2023/01/30 03:31:02;;;;;;;21.67;14.83;;;5.70;99.90;;;;;;5017785;28;20243;-62
2023/01/30 03:33:31;;;;;;;20.27;14.07;;;5.60;99.90;;;;;;5033191;28;20232;-62
2023/01/30 03:35:59;;;;;;;19.50;13.57;;;5.70;99.90;;;;;;5043317;28;20641;-62
2023/01/30 03:38:28;;;;;;;17.70;14.00;;;5.70;99.90;;;;;;5039223;28;20469;-62
2023/01/30 03:40:56;;;;;;;16.13;13.33;;;5.80;99.90;;;;;;5017433;28;20779;-62
2023/01/30 03:43:24;;;;;;;16.23;12.20;;;5.80;99.90;;;;;;5033584;28;20761;-62
2023/01/30 03:45:52;;;;;;;19.57;13.03;;;5.80;99.90;;;;;;5033556;28;20565;-62
2023/01/30 03:48:20;;;;;;;21.53;12.20;;;5.80;99.90;;;;;;5033695;28;20632;-62
2023/01/30 03:50:50;;;;;;;14.87;11.77;;;5.90;99.90;;;;;;5024840;28;20566;-61
2023/01/30 03:53:18;;;;;;;21.00;11.83;;;5.90;99.90;;;;;;5013499;28;20495;-62
2023/01/30 03:55:46;;;;;;;20.43;11.17;;;5.90;99.90;;;;;;5024071;28;20237;-62
2023/01/30 03:58:14;;;;;;;17.23;11.70;;;5.90;99.90;;;;;;5033643;28;20263;-62
2023/01/30 04:00:42;;;;;;;20.30;11.23;;;5.90;99.90;;;;;;5033735;28;20781;-62
2023/01/30 04:03:10;;;;;;;16.43;10.27;;;5.90;99.90;;;;;;5023495;28;20236;-62
2023/01/30 04:05:38;;;;;;;13.37;9.90;;;5.90;99.90;;;;;;5035977;28;20227;-62
2023/01/30 04:08:10;;;;;;;15.40;10.33;;;6.00;99.90;;;;;;5041561;28;20232;-63
2023/01/30 04:10:38;;;;;;;17.97;9.90;;;5.90;99.90;;;;;;5032947;28;20247;-62
2023/01/30 04:13:06;;;;;;;14.43;8.67;;;6.00;99.90;;;;;;5032710;28;20241;-62
2023/01/30 04:15:34;;;;;;;12.50;8.17;;;6.00;99.90;;;;;;5032544;28;20235;-62
2023/01/30 04:18:18;;;;;;;14.20;6.83;;;6.00;99.90;;;;;;5033033;28;20478;-62
2023/01/30 04:20:46;;;;;;;14.40;7.20;;;6.00;99.90;;;;;;5034322;28;20248;-62
2023/01/30 04:23:20;;;;;;;10.53;5.80;;;5.90;99.90;;;;;;5033075;28;20635;-62
2023/01/30 04:25:48;;;;;;;11.33;5.27;;;5.90;99.90;;;;;;5032957;28;20466;-62
2023/01/30 04:28:18;;;;;;;13.20;5.67;;;5.90;99.90;;;;;;5033020;28;20710;-62
2023/01/30 04:30:47;;;;;;;15.23;6.03;;;5.90;99.90;;;;;;5031917;28;20433;-62
2023/01/30 04:33:35;;;;;;;11.77;5.33;;;5.90;99.90;;;;;;5033238;28;20239;-60
2023/01/30 04:36:07;;;;;;;8.07;4.60;;;5.90;99.90;;;;;;5041040;28;20523;-60
2023/01/30 04:38:38;;;;;;;9.90;3.93;;;5.90;99.90;;;;;;5037647;28;20316;-60
2023/01/30 04:41:07;;;;;;;11.03;4.00;;;5.90;99.90;;;;;;5032465;28;20243;-62
2023/01/30 04:43:39;;;;;;;7.37;3.53;;;5.90;99.90;;;;;;5032634;28;20556;-62
2023/01/30 04:46:25;;;;;;;9.83;3.20;;;5.90;99.90;;;;;;5033259;28;20817;-61
2023/01/30 04:48:53;;;;;;;13.27;3.50;;;5.80;99.90;;;;;;5032627;28;20470;-62
2023/01/30 04:51:21;;;;;;;12.23;2.53;;;5.80;99.90;;;;;;5032346;28;20246;-62
2023/01/30 04:53:52;;;;;;;11.93;3.00;;;5.80;99.90;;;;;;5032632;28;20239;-62
2023/01/30 04:56:20;;;;;;;6.97;2.07;;;5.70;99.90;;;;;;5033803;28;21015;-61
2023/01/30 04:58:50;;;;;;;13.47;2.10;;;5.70;99.90;;;;;;5028519;28;20460;-61
2023/01/30 05:01:23;;;;;;;9.07;1.77;;;5.60;99.90;;;;;;5032097;28;20257;-62
2023/01/30 05:03:52;;;;;;;9.83;2.43;;;5.60;99.90;;;;;;5032143;28;20236;-62
2023/01/30 05:06:21;;;;;;;13.57;2.63;;;5.60;99.90;;;;;;5045473;28;20592;-61
2023/01/30 05:08:50;;;;;;;15.40;2.47;;;5.60;99.90;;;;;;5041769;28;20467;-62
2023/01/30 05:11:19;;;;;;;14.90;2.50;;;5.70;99.90;;;;;;5033619;28;20466;-62
2023/01/30 05:13:48;;;;;;;8.53;1.90;;;5.60;99.90;;;;;;5033773;28;20254;-62
2023/01/30 05:16:18;;;;;;;12.13;1.77;;;5.60;99.90;;;;;;5034290;28;20231;-62
2023/01/30 05:18:46;;;;;;;9.93;1.90;;;5.50;99.90;;;;;;5033586;28;20924;-62
2023/01/30 05:21:16;;;;;;;8.07;1.40;;;5.50;99.90;;;;;;5033186;28;20261;-61
2023/01/30 05:23:45;;;;;;;11.03;1.67;;;5.40;99.90;;;;;;5027766;28;21516;-62
2023/01/30 05:26:14;;;;;;;13.27;2.07;;;5.40;99.90;;;;;;5022513;28;20470;-61
2023/01/30 05:28:44;;;;;;;6.07;1.40;;;5.40;99.90;;;;;;5027765;28;20537;-62
2023/01/30 05:31:13;;;;;;;14.67;2.93;;;5.40;99.90;;;;;;5030382;28;20247;-62
2023/01/30 05:33:42;;;;;;;13.40;2.00;;;5.30;99.90;;;;;;5044725;28;20532;-62
2023/01/30 05:36:14;;;;;;;11.87;2.43;;;5.30;99.90;;;;;;5038852;28;20694;-62
2023/01/30 05:38:44;;;;;;;10.97;1.83;;;5.30;99.90;;;;;;5036516;28;20474;-62
2023/01/30 05:41:13;;;;;;;11.07;2.13;;;5.20;99.90;;;;;;5033196;28;20231;-62
2023/01/30 05:43:41;;;;;;;11.67;2.00;;;5.20;99.90;;;;;;5033038;28;20466;-62
2023/01/30 05:46:12;;;;;;;8.70;1.80;;;5.20;99.90;;;;;;5033100;28;20489;-62
2023/01/30 05:48:40;;;;;;;12.33;1.90;;;5.10;99.90;;;;;;5030802;28;20474;-62
2023/01/30 05:51:17;;;;;;;11.13;1.80;;;5.10;99.90;;;;;;5023109;28;20593;-62
2023/01/30 05:53:45;;;;;;;15.73;2.40;;;5.10;99.90;;;;;;5013133;28;20494;-62
2023/01/30 05:56:14;;;;;;;16.23;2.37;;;5.10;99.90;;;;;;5013573;28;20819;-62
2023/01/30 05:58:42;;;;;;;11.87;2.07;;;5.10;99.90;;;;;;5016347;28;20478;-62
2023/01/30 06:01:13;;;;;;;11.53;2.13;;;5.10;99.90;;;;;;5023054;28;20470;-62
2023/01/30 06:03:41;;;;;;;14.17;2.47;;;5.20;99.90;;;;;;5036446;28;20792;-62
2023/01/30 06:06:11;;;;;;;10.77;1.90;;;5.10;99.90;;;;;;5048463;28;20510;-62
2023/01/30 06:08:39;;;;;;;12.33;2.27;;;5.10;99.90;;;;;;5052392;28;20469;-62
2023/01/30 06:11:10;;;;;;;13.10;1.90;;;5.10;99.90;;;;;;5053381;28;21677;-63
2023/01/30 06:13:38;;;;;;;13.73;2.17;;;5.10;99.90;;;;;;5026461;28;20529;-62
2023/01/30 06:16:08;;;;;;;15.30;3.37;;;5.00;99.90;;;;;;5032867;28;20264;-62
2023/01/30 06:18:37;;;;;;;9.77;1.70;;;5.00;99.90;;;;;;5029097;28;20246;-62
2023/01/30 06:21:06;;;;;;;12.03;2.00;;;5.00;99.90;;;;;;5027693;28;20467;-62
2023/01/30 06:23:35;;;;;;;8.60;1.70;;;5.00;99.90;;;;;;5032626;28;20462;-62
2023/01/30 06:26:03;;;;;;;8.33;1.83;;;4.90;99.90;;;;;;5040448;28;20547;-62
2023/01/30 06:28:35;;;;;;;8.40;1.67;;;4.90;99.90;;;;;;5038668;28;20554;-62
2023/01/30 06:31:05;;;;;;;11.90;2.03;;;4.80;99.90;;;;;;5031863;28;20480;-62
2023/01/30 06:33:33;;;;;;;11.20;2.37;;;4.80;99.90;;;;;;5034202;28;21045;-62
2023/01/30 06:36:03;;;;;;;13.70;1.73;;;4.70;99.90;;;;;;5044225;28;20472;-62
2023/01/30 06:38:31;;;;;;;14.23;2.33;;;4.70;99.90;;;;;;5047141;28;20483;-62
2023/01/30 06:40:59;;;;;;;11.63;2.10;;;4.70;99.90;;;;;;5029675;28;20519;-62
2023/01/30 06:43:28;;;;;;;10.60;1.70;;;4.60;99.90;;;;;;5017473;28;21172;-62
2023/01/30 06:45:58;;;;;;;12.20;2.07;;;4.70;99.90;;;;;;5031717;28;20792;-62
2023/01/30 06:48:26;;;;;;;13.77;2.40;;;4.70;99.90;;;;;;5043799;28;20554;-62
2023/01/30 06:50:54;;;;;;;17.17;2.97;;;4.70;99.90;;;;;;5052075;28;20805;-62
2023/01/30 06:53:29;;;;;;;13.30;2.23;;;4.70;99.90;;;;;;5035452;28;20559;-62
2023/01/30 06:55:57;;;;;;;18.93;2.70;;;4.70;99.90;;;;;;5032185;28;20258;-62
2023/01/30 06:58:26;;;;;;;17.60;2.23;;;4.70;99.90;;;;;;5045536;28;20230;-62
2023/01/30 07:00:54;;;;;;;19.43;2.73;;;4.70;99.90;;;;;;5035611;28;20998;-62
2023/01/30 07:03:23;;;;;;;15.83;2.77;;;4.70;99.90;;;;;;5039537;28;20617;-62
2023/01/30 07:05:51;;;;;;;25.03;3.40;;;4.70;99.90;;;;;;5043365;28;20996;-62
2023/01/30 07:08:19;;;;;;;21.70;3.63;;;4.70;99.90;;;;;;5041828;28;20487;-62
2023/01/30 07:10:52;;;;;;;17.67;3.70;;;4.70;99.90;;;;;;5046339;28;20525;-62
2023/01/30 07:13:20;;;;;;;27.43;3.40;;;4.80;99.90;;;;;;5055534;28;20483;-62
2023/01/30 07:15:49;;;;;;;31.03;4.47;;;4.80;99.90;;;;;;5043446;28;20501;-62
2023/01/30 07:18:17;;;;;;;31.53;4.90;;;4.80;99.90;;;;;;5029174;28;20813;-62
2023/01/30 07:20:47;;;;;;;27.50;4.77;;;4.80;99.90;;;;;;5030244;28;20868;-62
2023/01/30 07:23:15;;;;;;;25.10;3.97;;;4.80;99.90;;;;;;5047896;28;20235;-62
2023/01/30 07:25:43;;;;;;;26.10;3.93;;;4.70;99.90;;;;;;5047249;28;20481;-62
2023/01/30 07:28:13;;;;;;;25.80;4.03;;;4.70;99.90;;;;;;5044957;28;20464;-62
2023/01/30 07:30:41;;;;;;;35.20;4.53;;;4.70;99.90;;;;;;5036365;28;20240;-63
2023/01/30 07:33:09;;;;;;;27.70;5.17;;;4.70;99.90;;;;;;5043045;28;21005;-62
2023/01/30 07:35:38;;;;;;;26.23;5.17;;;4.80;99.90;;;;;;5038881;28;20488;-62
2023/01/30 07:38:06;;;;;;;31.80;4.30;;;4.80;99.90;;;;;;5029249;28;20462;-62
2023/01/30 07:40:34;;;;;;;32.57;5.43;;;4.80;99.90;;;;;;5037613;28;21008;-62
2023/01/30 07:43:04;;;;;;;36.47;5.17;;;4.80;99.90;;;;;;5043069;28;20244;-62
2023/01/30 07:45:38;;;;;;;27.53;4.33;;;4.80;99.90;;;;;;5053476;28;20462;-62
2023/01/30 07:48:06;;;;;;;28.60;4.60;;;4.90;99.90;;;;;;5046264;28;20458;-62
2023/01/30 07:50:35;;;;;;;25.07;5.03;;;5.00;99.90;;;;;;5049466;28;20466;-62
2023/01/30 07:53:04;;;;;;;27.70;5.23;;;5.10;99.90;;;;;;5053999;28;20977;-62
2023/01/30 07:55:32;;;;;;;36.30;5.27;;;5.10;99.90;;;;;;5046846;28;20481;-62
2023/01/30 07:58:00;;;;;;;31.53;4.70;;;5.10;99.90;;;;;;5037201;28;20473;-62
2023/01/30 08:00:29;;;;;;;28.53;4.77;;;5.10;99.90;;;;;;5042107;28;20524;-62
2023/01/30 08:02:58;;;;;;;29.37;5.20;;;5.10;99.90;;;;;;5039850;28;20548;-62
2023/01/30 08:05:26;;;;;;;26.97;4.43;;;5.10;99.90;;;;;;5044426;28;20984;-62
2023/01/30 08:07:55;;;;;;;36.43;5.27;;;5.10;99.90;;;;;;5051844;28;20466;-62
2023/01/30 08:10:24;;;;;;;30.63;4.53;;;5.10;99.90;;;;;;5037205;28;20981;-62
2023/01/30 08:12:52;;;;;;;28.00;4.27;;;5.10;99.90;;;;;;5037508;28;20820;-62
2023/01/30 08:15:20;;;;;;;20.50;4.43;;;5.10;99.90;;;;;;5048954;28;21037;-62
2023/01/30 08:17:58;;;;;;;30.13;4.60;;;5.00;99.90;;;;;;5047190;28;20474;-60
2023/01/30 08:20:27;;;;;;;24.87;4.73;;;5.10;99.90;;;;;;5046367;28;20223;-62
2023/01/30 08:22:56;;;;;;;32.00;4.37;;;5.10;99.90;;;;;;5046994;28;20494;-62
2023/01/30 08:25:24;;;;;;;27.53;4.03;;;5.00;99.90;;;;;;5038330;28;21108;-62
2023/01/30 08:27:52;;;;;;;32.07;4.90;;;5.00;99.90;;;;;;5045440;28;20470;-62
2023/01/30 08:30:21;;;;;;;35.60;5.80;;;5.00;99.90;;;;;;5046465;28;20462;-62
2023/01/30 08:32:50;;;;;;;30.40;4.67;;;5.00;99.90;;;;;;5046512;28;20467;-62
2023/01/30 08:35:19;;;;;;;26.40;4.27;;;5.10;99.90;;;;;;5048665;28;20478;-62
2023/01/30 08:37:47;;;;;;;25.87;4.60;;;5.30;99.90;;;;;;5039272;28;20527;-62
2023/01/30 08:40:15;;;;;;;28.83;4.27;;;5.30;99.90;;;;;;5050338;28;20695;-62
2023/01/30 08:42:45;;;;;;;29.70;4.93;;;5.40;99.90;;;;;;5043434;28;21008;-60
2023/01/30 08:45:13;;;;;;;22.63;4.00;;;5.40;99.90;;;;;;5036954;28;20459;-62
2023/01/30 08:47:41;;;;;;;30.00;5.10;;;5.50;99.90;;;;;;5038377;28;20232;-62
2023/01/30 08:50:10;;;;;;;26.40;3.80;;;5.40;99.90;;;;;;5036817;28;20531;-62
2023/01/30 08:52:40;;;;;;;32.47;4.87;;;5.50;99.90;;;;;;5034771;28;20467;-62
2023/01/30 08:55:09;;;;;;;23.93;3.77;;;5.60;99.90;;;;;;5043732;28;20490;-62
2023/01/30 08:57:37;;;;;;;23.77;4.13;;;5.70;99.90;;;;;;5043854;28;20462;-62
2023/01/30 09:00:06;;;;;;;25.77;5.20;;;5.70;99.90;;;;;;5046303;28;20481;-62
2023/01/30 09:02:35;;;;;;;27.50;4.97;;;5.70;99.90;;;;;;5030465;28;21025;-62
2023/01/30 09:05:03;;;;;;;30.57;4.13;;;5.80;99.90;;;;;;5034771;28;20634;-62
2023/01/30 09:07:31;;;;;;;30.47;4.57;;;5.80;99.90;;;;;;5039432;28;20237;-62
2023/01/30 09:10:00;;;;;;;27.07;4.80;;;5.70;99.90;;;;;;5031773;28;20309;-62
2023/01/30 09:12:28;;;;;;;25.60;4.40;;;5.70;99.90;;;;;;5016396;28;20227;-61
2023/01/30 09:14:59;;;;;;;29.97;4.43;;;5.70;99.90;;;;;;5016380;28;20296;-62
2023/01/30 09:17:27;;;;;;;33.73;4.87;;;5.60;99.90;;;;;;5026283;28;20228;-62
2023/01/30 09:19:55;;;;;;;21.57;4.13;;;5.70;99.90;;;;;;5025978;28;20251;-62
2023/01/30 09:22:23;;;;;;;26.07;4.00;;;5.70;99.90;;;;;;5027264;28;20859;-61
2023/01/30 09:24:53;;;;;;;25.97;4.93;;;5.80;99.90;;;;;;5022317;28;20471;-62
2023/01/30 09:27:23;;;;;;;27.13;4.57;;;5.80;99.90;;;;;;5027074;28;20243;-62
2023/01/30 09:29:51;;;;;;;21.43;4.40;;;5.80;99.90;;;;;;5022158;28;20474;-62
2023/01/30 09:32:19;;;;;;;29.30;4.70;;;5.90;99.90;;;;;;5028816;28;20612;-62
2023/01/30 09:34:47;;;;;;;27.33;4.50;;;6.00;99.90;;;;;;5025286;28;20227;-62
2023/01/30 09:37:15;;;;;;;31.67;4.70;;;6.10;99.90;;;;;;5032643;28;20243;-62
2023/01/30 09:39:43;;;;;;;28.20;4.90;;;6.10;99.90;;;;;;5031343;28;20239;-62
2023/01/30 09:42:43;;;;;;;30.67;4.60;;;6.10;99.90;;;;;;5028237;28;20236;-61
2023/01/30 09:45:37;;;;;;;24.57;5.00;;;6.30;99.90;;;;;;5025223;28;20501;-62
2023/01/30 09:48:15;;;;;;;25.20;4.33;;;6.30;99.90;;;;;;5032433;28;20249;-62
2023/01/30 09:51:11;;;;;;;25.47;4.77;;;6.40;99.90;;;;;;5030403;28;20230;-62
2023/01/30 09:53:55;;;;;;;31.73;4.20;;;6.50;99.90;;;;;;5025626;28;20227;-62
2023/01/30 09:56:23;;;;;;;22.73;4.53;;;6.60;99.90;;;;;;5025744;28;20495;-62
2023/01/30 09:58:56;;;;;;;27.47;4.67;;;6.70;99.90;;;;;;5025394;28;20265;-62
2023/01/30 10:01:31;;;;;;;25.13;4.80;;;6.70;99.90;;;;;;5016323;28;20236;-62
2023/01/30 10:04:08;;;;;;;25.00;4.47;;;6.80;99.90;;;;;;5016156;28;20229;-61
2023/01/30 10:06:42;;;;;;;22.50;3.97;;;6.80;99.90;;;;;;5021839;28;20282;-61
2023/01/30 10:09:18;;;;;;;25.07;3.93;;;6.70;99.90;;;;;;5023384;28;20333;-61
2023/01/30 10:12:00;;;;;;;27.30;4.10;;;6.70;99.90;;;;;;5019314;28;20294;-61
2023/01/30 10:14:44;;;;;;;20.07;3.73;;;6.80;99.90;;;;;;5016630;28;20304;-62
2023/01/30 10:17:29;;;;;;;19.97;3.87;;;6.80;99.90;;;;;;5024102;28;20236;-61
2023/01/30 10:20:16;;;;;;;22.33;3.50;;;6.80;99.90;;;;;;5019993;28;20614;-62
2023/01/30 10:23:01;;;;;;;15.93;3.27;;;7.00;99.90;;;;;;5019749;28;20705;-61
2023/01/30 10:25:34;;;;;;;17.17;3.23;;;7.20;99.90;;;;;;5017890;28;20592;-61
2023/01/30 10:28:06;;;;;;;19.07;3.80;;;7.20;99.90;;;;;;5022126;28;20592;-62
2023/01/30 10:30:36;;;;;;;20.07;3.50;;;7.10;99.90;;;;;;5022582;28;20250;-61
2023/01/30 10:33:08;;;;;;;28.63;4.30;;;7.20;99.90;;;;;;5020220;28;20708;-61
2023/01/30 10:35:41;;;;;;;19.53;3.80;;;7.40;99.90;;;;;;5019198;28;20230;-61
2023/01/30 10:38:16;;;;;;;17.63;3.57;;;7.40;99.90;;;;;;5016951;28;20324;-61
2023/01/30 10:40:52;;;;;;;22.83;3.67;;;7.30;99.90;;;;;;5018807;28;20351;-61
2023/01/30 10:43:26;;;;;;;21.63;3.77;;;7.10;99.90;;;;;;5018654;28;20252;-62
2023/01/30 10:46:04;;;;;;;15.97;3.40;;;7.00;99.90;;;;;;5021655;28;20231;-62
2023/01/30 10:48:49;;;;;;;20.93;4.07;;;6.80;99.90;;;;;;5017873;28;20232;-62
2023/01/30 10:51:30;;;;;;;24.50;4.10;;;6.60;99.90;;;;;;5027601;28;20938;-62
2023/01/30 10:54:01;;;;;;;16.20;3.00;;;6.40;99.90;;;;;;5026434;28;20224;-62
2023/01/30 10:56:38;;;;;;;19.80;3.93;;;6.30;99.90;;;;;;5024474;28;20216;-62
2023/01/30 10:59:20;;;;;;;19.13;3.07;;;6.20;99.90;;;;;;5021037;28;20228;-62
2023/01/30 11:01:57;;;;;;;18.23;3.67;;;6.00;99.90;;;;;;5015863;28;20589;-62
2023/01/30 11:04:31;;;;;;;10.57;2.20;;;5.70;99.90;;;;;;5016634;28;20231;-62
2023/01/30 11:07:01;;;;;;;7.13;1.67;;;5.50;99.90;;;;;;5018818;28;20227;-62
2023/01/30 11:09:40;;;;;;;8.57;1.40;;;5.30;99.90;;;;;;5020199;28;20292;-62
2023/01/30 11:12:09;;;;;;;5.67;1.10;;;5.20;99.90;;;;;;5020182;28;20527;-62
2023/01/30 11:14:58;;;;;;;5.23;1.37;;;5.10;99.90;;;;;;5017950;28;20953;-62
2023/01/30 11:17:35;;;;;;;3.87;0.80;;;5.10;99.90;;;;;;5015456;28;20263;-61
2023/01/30 11:20:11;;;;;;;6.10;1.00;;;5.00;99.90;;;;;;5018014;28;20863;-62
2023/01/30 11:22:49;;;;;;;6.97;1.20;;;5.00;99.90;;;;;;5017259;28;20595;-62
2023/01/30 11:25:20;;;;;;;4.77;1.23;;;5.00;99.90;;;;;;5019221;28;20983;-62
2023/01/30 11:27:54;;;;;;;8.43;1.30;;;5.10;99.90;;;;;;5018710;28;20236;-61
2023/01/30 11:30:28;;;;;;;10.87;1.67;;;5.10;99.90;;;;;;5018131;28;20229;-61
2023/01/30 11:33:12;;;;;;;9.63;1.63;;;5.20;99.90;;;;;;5020374;28;20801;-61
2023/01/30 11:35:53;;;;;;;6.93;1.50;;;5.20;99.90;;;;;;5020676;28;20238;-61
2023/01/30 11:38:23;;;;;;;8.70;2.17;;;5.30;99.90;;;;;;5019882;28;20237;-61
2023/01/30 11:41:03;;;;;;;9.27;1.93;;;5.30;99.90;;;;;;5027580;28;20931;-61
2023/01/30 11:43:33;;;;;;;11.83;2.00;;;5.40;99.90;;;;;;5024206;28;20486;-61
2023/01/30 11:46:02;;;;;;;15.20;2.03;;;5.50;99.90;;;;;;5021023;28;20480;-61
2023/01/30 11:48:34;;;;;;;14.40;2.17;;;5.60;99.90;;;;;;5019505;28;20278;-62
2023/01/30 11:51:24;;;;;;;13.57;2.40;;;5.70;99.90;;;;;;5017275;28;20933;-61
2023/01/30 11:53:57;;;;;;;19.03;2.37;;;5.80;99.90;;;;;;5014166;28;20706;-61
2023/01/30 11:56:33;;;;;;;12.33;2.40;;;5.90;99.90;;;;;;5019358;28;20596;-59
2023/01/30 11:59:07;;;;;;;19.07;2.80;;;6.00;99.90;;;;;;5017271;28;20630;-61
2023/01/30 12:01:36;;;;;;;13.97;2.40;;;6.00;99.90;;;;;;5030190;28;20231;-61
2023/01/30 12:04:10;;;;;;;18.63;2.87;;;6.10;99.90;;;;;;5038301;28;20220;-59
2023/01/30 12:06:41;;;;;;;18.40;3.10;;;6.20;99.90;;;;;;5043990;28;20474;-59
2023/01/30 12:09:31;;;;;;;15.73;3.17;;;6.30;99.90;;;;;;5040967;28;20224;-59
2023/01/30 12:11:59;;;;;;;17.10;2.67;;;6.40;99.90;;;;;;5038466;28;20543;-59
2023/01/30 12:14:37;;;;;;;19.50;3.73;;;6.50;99.90;;;;;;5044811;28;20685;-59
2023/01/30 12:17:14;;;;;;;22.50;3.60;;;6.50;99.90;;;;;;5032002;28;20211;-59
2023/01/30 12:19:55;;;;;;;26.17;3.60;;;6.40;99.90;;;;;;5038904;28;20220;-59
2023/01/30 12:22:32;;;;;;;19.13;3.13;;;6.50;99.90;;;;;;5028108;28;20555;-61
2023/01/30 12:25:01;;;;;;;27.83;3.80;;;6.50;99.90;;;;;;5030863;28;20583;-61
2023/01/30 12:27:43;;;;;;;22.77;3.80;;;6.50;99.90;;;;;;5030948;28;20213;-61
2023/01/30 12:30:21;;;;;;;20.63;4.33;;;6.50;99.90;;;;;;5036636;28;20224;-60
2023/01/30 12:32:49;;;;;;;23.07;4.30;;;6.50;99.90;;;;;;5040727;28;20683;-61
2023/01/30 12:35:27;;;;;;;22.53;3.90;;;6.50;99.90;;;;;;5049804;28;20232;-61
2023/01/30 12:38:03;;;;;;;12.47;3.50;;;6.60;99.90;;;;;;5027099;28;20227;-61
2023/01/30 12:40:43;;;;;;;22.90;4.47;;;6.70;99.90;;;;;;5028816;28;20220;-61
2023/01/30 12:43:39;;;;;;;26.47;4.30;;;6.60;99.90;;;;;;5030036;28;20274;-61
2023/01/30 12:46:20;;;;;;;10.37;1.90;;;6.60;99.90;;;;;;5049931;28;20227;-61
2023/01/30 12:49:01;;;;;;;27.47;4.77;;;6.70;99.90;;;;;;5039065;28;20243;-60
2023/01/30 12:51:54;;;;;;;19.17;3.50;;;6.80;99.90;;;;;;5031535;28;20216;-60
2023/01/30 12:54:39;;;;;;;15.00;2.77;;;6.80;99.90;;;;;;5046121;28;20683;-61
2023/01/30 12:57:18;;;;;;;16.07;3.40;;;6.70;99.90;;;;;;5050439;28;20305;-60
2023/01/30 12:59:58;;;;;;;16.77;2.93;;;6.70;99.90;;;;;;5031091;28;20261;-61
2023/01/30 13:02:52;;;;;;;17.70;2.30;;;6.70;99.90;;;;;;5033078;28;20271;-60
2023/01/30 13:05:34;;;;;;;13.93;2.93;;;6.70;99.90;;;;;;5043110;28;20224;-61
2023/01/30 13:08:23;;;;;;;18.07;2.63;;;6.70;99.90;;;;;;5049629;28;20591;-61
2023/01/30 13:11:02;;;;;;;21.47;3.37;;;6.80;99.90;;;;;;5042409;28;20228;-61
2023/01/30 13:13:38;;;;;;;20.37;3.60;;;6.80;99.90;;;;;;5051407;28;20223;-61
2023/01/30 13:16:14;;;;;;;18.10;3.97;;;6.80;99.90;;;;;;5035566;28;20242;-61
2023/01/30 13:18:49;;;;;;;23.07;4.10;;;6.80;99.90;;;;;;5048650;28;20259;-61
2023/01/30 13:21:21;;;;;;;21.67;3.80;;;6.80;99.90;;;;;;5040952;28;20227;-61